createdAt,value
2018-06-11T00:00:37.329Z,19.90
2018-06-11T00:03:04.735Z,19.80
2018-06-11T00:05:32.136Z,19.80
2018-06-11T00:07:59.531Z,19.80
2018-06-11T00:10:26.949Z,19.80
2018-06-11T00:12:54.330Z,19.80
2018-06-11T00:15:21.746Z,19.70
2018-06-11T00:17:49.144Z,19.70
2018-06-11T00:20:16.549Z,19.70
2018-06-11T00:22:43.956Z,19.70
2018-06-11T00:25:11.364Z,19.70
2018-06-11T00:27:38.752Z,19.70
2018-06-11T00:30:06.200Z,19.60
2018-06-11T00:32:33.590Z,19.60
2018-06-11T00:35:01.001Z,19.60
2018-06-11T00:37:28.413Z,19.60
2018-06-11T00:39:55.885Z,19.60
2018-06-11T00:42:23.307Z,19.60
2018-06-11T00:44:50.730Z,19.60
2018-06-11T00:47:18.130Z,19.60
2018-06-11T00:49:45.523Z,19.60
2018-06-11T00:52:12.932Z,19.60
2018-06-11T00:54:40.363Z,19.60
2018-06-11T00:57:07.795Z,19.50
2018-06-11T00:59:35.227Z,19.50
2018-06-11T01:02:03.227Z,19.50
2018-06-11T01:04:30.647Z,19.50
2018-06-11T01:06:58.879Z,19.40
2018-06-11T01:09:26.319Z,19.40
2018-06-11T01:11:53.856Z,19.30
2018-06-11T01:14:21.260Z,19.30
2018-06-11T01:16:48.679Z,19.30
2018-06-11T01:19:16.107Z,19.20
2018-06-11T01:21:43.531Z,19.10
2018-06-11T01:24:10.934Z,19.10
2018-06-11T01:26:38.438Z,19.10
2018-06-11T01:29:05.831Z,19.00
2018-06-11T01:31:33.291Z,19.00
2018-06-11T01:34:00.700Z,18.90
2018-06-11T01:36:28.135Z,18.90
2018-06-11T01:38:55.556Z,18.80
2018-06-11T01:41:22.969Z,18.70
2018-06-11T01:43:50.396Z,18.70
2018-06-11T01:46:17.827Z,18.70
2018-06-11T01:48:45.282Z,18.60
2018-06-11T01:51:12.679Z,18.60
2018-06-11T01:53:40.086Z,18.50
2018-06-11T01:56:07.508Z,18.50
2018-06-11T01:58:34.915Z,18.40
2018-06-11T02:01:02.383Z,18.30
2018-06-11T02:03:29.797Z,18.30
2018-06-11T02:05:57.211Z,18.20
2018-06-11T02:08:24.658Z,18.20
2018-06-11T02:10:52.075Z,18.10
2018-06-11T02:13:19.491Z,18.00
2018-06-11T02:15:46.976Z,18.00
2018-06-11T02:18:14.409Z,18.00
2018-06-11T02:20:41.815Z,17.90
2018-06-11T02:23:09.240Z,17.90
2018-06-11T02:25:36.709Z,17.80
2018-06-11T02:28:04.121Z,17.80
2018-06-11T02:30:31.555Z,17.70
2018-06-11T02:32:58.970Z,17.70
2018-06-11T02:35:26.408Z,17.60
2018-06-11T02:37:53.836Z,17.60
2018-06-11T02:40:21.231Z,17.60
2018-06-11T02:42:48.625Z,17.60
2018-06-11T02:45:16.296Z,17.50
2018-06-11T02:47:43.755Z,17.50
2018-06-11T02:50:11.152Z,17.50
2018-06-11T02:52:38.612Z,17.40
2018-06-11T02:55:06.931Z,17.40
2018-06-11T02:57:34.366Z,17.30
2018-06-11T03:00:01.815Z,17.30
2018-06-11T03:02:29.260Z,17.20
2018-06-11T03:04:56.668Z,17.20
2018-06-11T03:07:24.091Z,17.20
2018-06-11T03:09:51.535Z,17.10
2018-06-11T03:12:18.923Z,17.10
2018-06-11T03:14:46.373Z,17.10
2018-06-11T03:17:13.800Z,17.00
2018-06-11T03:19:41.213Z,17.00
2018-06-11T03:22:08.628Z,16.90
2018-06-11T03:24:36.071Z,16.90
2018-06-11T03:27:03.483Z,16.80
2018-06-11T03:29:30.918Z,16.80
2018-06-11T03:31:58.349Z,16.80
2018-06-11T03:34:25.823Z,16.90
2018-06-11T03:36:53.262Z,16.90
2018-06-11T03:39:20.671Z,16.90
2018-06-11T03:41:48.103Z,16.90
2018-06-11T03:44:15.504Z,17.00
2018-06-11T03:46:42.897Z,17.00
2018-06-11T03:49:10.295Z,17.10
2018-06-11T03:51:37.692Z,17.10
2018-06-11T03:54:05.091Z,17.10
2018-06-11T03:56:32.511Z,17.10
2018-06-11T03:58:59.950Z,17.20
2018-06-11T04:01:27.346Z,17.20
2018-06-11T04:03:54.740Z,17.20
2018-06-11T04:06:22.186Z,17.20
2018-06-11T04:08:49.584Z,17.30
2018-06-11T04:11:16.988Z,17.30
2018-06-11T04:13:44.412Z,17.30
2018-06-11T04:16:11.844Z,17.40
2018-06-11T04:18:46.012Z,17.40
2018-06-11T04:21:13.453Z,17.40
2018-06-11T04:23:40.848Z,17.50
2018-06-11T04:26:08.376Z,17.50
2018-06-11T04:28:35.791Z,17.60
2018-06-11T04:33:30.604Z,17.60
2018-06-11T04:35:58.016Z,17.60
2018-06-11T04:38:25.428Z,17.60
2018-06-11T04:40:52.891Z,17.60
2018-06-11T04:43:20.335Z,17.60
2018-06-11T04:45:47.783Z,17.70
2018-06-11T04:48:15.260Z,17.70
2018-06-11T04:50:42.659Z,17.70
2018-06-11T04:53:10.061Z,17.70
2018-06-11T04:55:37.491Z,17.80
2018-06-11T04:58:04.925Z,17.70
2018-06-11T05:00:32.343Z,17.80
2018-06-11T05:02:59.765Z,17.70
2018-06-11T05:05:27.152Z,17.70
2018-06-11T05:07:54.538Z,17.70
2018-06-11T05:10:21.966Z,17.70
2018-06-11T05:12:49.339Z,17.70
2018-06-11T05:15:16.721Z,17.70
2018-06-11T05:17:44.164Z,17.70
2018-06-11T05:20:11.722Z,17.70
2018-06-11T05:22:39.076Z,17.70
2018-06-11T05:25:06.467Z,17.70
2018-06-11T05:30:01.253Z,17.80
2018-06-11T05:32:28.636Z,17.80
2018-06-11T05:34:56.054Z,17.80
2018-06-11T05:37:23.436Z,17.90
2018-06-11T05:39:50.853Z,18.00
2018-06-11T05:42:18.243Z,18.20
2018-06-11T05:44:45.648Z,18.30
2018-06-11T05:47:13.070Z,18.60
2018-06-11T05:49:40.439Z,18.80
2018-06-11T05:52:07.821Z,19.20
2018-06-11T05:54:35.235Z,19.50
2018-06-11T05:57:02.684Z,19.80
2018-06-11T05:59:30.094Z,20.10
2018-06-11T06:01:57.519Z,20.40
2018-06-11T06:04:24.920Z,20.60
2018-06-11T06:06:52.326Z,20.90
2018-06-11T06:09:19.711Z,21.20
2018-06-11T06:11:47.115Z,21.50
2018-06-11T06:14:14.548Z,21.70
2018-06-11T06:16:41.980Z,21.90
2018-06-11T06:19:09.368Z,22.10
2018-06-11T06:21:36.749Z,22.30
2018-06-11T06:24:04.260Z,22.50
2018-06-11T06:26:31.709Z,22.60
2018-06-11T06:28:59.108Z,22.70
2018-06-11T06:31:26.590Z,22.90
2018-06-11T06:33:53.991Z,23.10
2018-06-11T06:36:21.407Z,23.20
2018-06-11T06:38:48.829Z,23.40
2018-06-11T06:41:16.212Z,23.60
2018-06-11T06:46:11.033Z,23.90
2018-06-11T06:48:38.460Z,24.10
2018-06-11T06:51:05.940Z,24.20
2018-06-11T06:53:34.000Z,24.40
2018-06-11T06:56:01.419Z,24.50
2018-06-11T06:58:28.829Z,24.50
2018-06-11T07:00:56.245Z,24.60
2018-06-11T07:03:23.659Z,24.60
2018-06-11T07:05:51.127Z,24.70
2018-06-11T07:08:18.523Z,24.70
2018-06-11T07:10:45.928Z,24.80
2018-06-11T07:13:14.360Z,24.80
2018-06-11T07:15:41.835Z,24.80
2018-06-11T07:18:09.272Z,24.80
2018-06-11T07:20:36.889Z,25.00
2018-06-11T07:23:04.294Z,25.00
2018-06-11T07:25:31.684Z,25.10
2018-06-11T07:27:59.217Z,25.20
2018-06-11T07:30:26.683Z,25.20
2018-06-11T07:32:54.163Z,25.20
2018-06-11T07:35:21.591Z,25.20
2018-06-11T07:37:48.995Z,25.20
2018-06-11T07:40:16.396Z,25.30
2018-06-11T07:42:43.807Z,25.40
2018-06-11T07:45:11.213Z,25.40
2018-06-11T07:47:38.634Z,25.40
2018-06-11T07:50:06.073Z,25.40
2018-06-11T07:52:33.463Z,25.40
2018-06-11T07:55:00.832Z,25.40
2018-06-11T07:59:55.667Z,25.30
2018-06-11T08:02:29.719Z,25.30
2018-06-11T08:04:57.107Z,25.20
2018-06-11T08:07:24.518Z,25.20
2018-06-11T08:09:51.926Z,25.20
2018-06-11T08:12:19.338Z,25.20
2018-06-11T08:14:47.180Z,25.10
2018-06-11T08:17:14.968Z,25.00
2018-06-11T08:19:42.355Z,25.00
2018-06-11T08:22:09.731Z,25.00
2018-06-11T08:24:37.168Z,24.90
2018-06-11T08:27:04.666Z,24.80
2018-06-11T08:29:32.043Z,24.90
2018-06-11T08:31:59.470Z,24.90
2018-06-11T08:34:26.892Z,24.90
2018-06-11T08:36:54.310Z,24.90
2018-06-11T08:39:21.743Z,24.90
2018-06-11T08:41:49.132Z,25.00
2018-06-11T08:44:16.503Z,25.00
2018-06-11T08:46:43.915Z,25.10
2018-06-11T08:49:11.320Z,25.20
2018-06-11T08:51:45.624Z,25.30
2018-06-11T08:54:13.035Z,25.40
2018-06-11T08:56:40.431Z,25.50
2018-06-11T08:59:07.837Z,25.50
2018-06-11T09:01:35.242Z,25.60
2018-06-11T09:04:02.666Z,25.70
2018-06-11T09:06:30.079Z,25.70
2018-06-11T09:08:57.472Z,25.70
2018-06-11T09:11:24.870Z,25.70
2018-06-11T09:13:52.279Z,25.70
2018-06-11T09:16:19.675Z,25.60
2018-06-11T09:18:47.059Z,25.60
2018-06-11T09:21:14.549Z,25.70
2018-06-11T09:23:41.907Z,25.70
2018-06-11T09:26:09.287Z,25.80
2018-06-11T09:28:36.709Z,25.80
2018-06-11T09:31:04.171Z,26.00
2018-06-11T09:33:31.570Z,26.00
2018-06-11T09:35:58.997Z,26.10
2018-06-11T09:38:26.392Z,26.10
2018-06-11T09:40:53.784Z,26.10
2018-06-11T09:43:21.192Z,26.00
2018-06-11T09:45:48.583Z,26.00
2018-06-11T09:48:15.975Z,25.90
2018-06-11T09:50:43.378Z,25.90
2018-06-11T09:53:10.778Z,25.90
2018-06-11T09:55:38.192Z,25.90
2018-06-11T09:58:05.698Z,26.00
2018-06-11T10:00:36.727Z,26.00
2018-06-11T10:03:04.285Z,26.10
2018-06-11T10:05:32.067Z,26.10
2018-06-11T10:07:59.488Z,26.20
2018-06-11T10:10:26.907Z,26.20
2018-06-11T10:12:54.341Z,26.20
2018-06-11T10:15:21.755Z,26.20
2018-06-11T10:17:49.159Z,26.30
2018-06-11T10:20:16.607Z,26.30
2018-06-11T10:22:44.020Z,26.30
2018-06-11T10:25:11.414Z,26.40
2018-06-11T10:27:38.859Z,26.50
2018-06-11T10:30:06.321Z,26.60
2018-06-11T10:32:33.728Z,26.60
2018-06-11T10:35:01.127Z,26.70
2018-06-11T10:37:28.546Z,26.70
2018-06-11T10:39:55.946Z,26.80
2018-06-11T10:42:23.353Z,26.80
2018-06-11T10:44:50.743Z,26.80
2018-06-11T10:47:18.152Z,26.90
2018-06-11T10:49:45.548Z,26.90
2018-06-11T10:52:12.943Z,26.90
2018-06-11T10:54:40.360Z,27.00
2018-06-11T10:57:07.788Z,27.10
2018-06-11T10:59:35.315Z,27.10
2018-06-11T11:02:02.972Z,27.20
2018-06-11T11:04:30.666Z,27.20
2018-06-11T11:06:58.121Z,27.30
2018-06-11T11:09:25.557Z,27.30
2018-06-11T11:11:52.991Z,27.40
2018-06-11T11:14:20.422Z,27.40
2018-06-11T11:16:47.807Z,27.50
2018-06-11T11:19:15.201Z,27.60
2018-06-11T11:21:42.584Z,27.60
2018-06-11T11:24:10.873Z,27.60
2018-06-11T11:26:38.317Z,27.60
2018-06-11T11:29:05.733Z,27.60
2018-06-11T11:31:33.138Z,27.70
2018-06-11T11:34:00.599Z,27.70
2018-06-11T11:36:28.079Z,27.80
2018-06-11T11:38:55.493Z,27.80
2018-06-11T11:41:22.895Z,27.90
2018-06-11T11:43:50.296Z,27.90
2018-06-11T11:46:17.673Z,27.90
2018-06-11T11:48:45.102Z,27.90
2018-06-11T11:51:12.536Z,27.90
2018-06-11T11:53:39.888Z,28.00
2018-06-11T11:56:07.271Z,28.00
2018-06-11T11:58:34.674Z,28.10
2018-06-11T12:01:02.203Z,28.10
2018-06-11T12:03:29.610Z,28.20
2018-06-11T12:05:57.047Z,28.20
2018-06-11T12:08:24.463Z,28.10
2018-06-11T12:10:51.979Z,28.10
2018-06-11T12:13:19.370Z,28.10
2018-06-11T12:15:53.539Z,28.10
2018-06-11T12:18:20.919Z,28.10
2018-06-11T12:20:48.327Z,28.10
2018-06-11T12:23:15.749Z,28.10
2018-06-11T12:25:43.123Z,28.10
2018-06-11T12:28:10.571Z,28.10
2018-06-11T12:30:38.010Z,28.20
2018-06-11T12:33:05.419Z,28.20
2018-06-11T12:35:32.838Z,28.30
2018-06-11T12:38:00.260Z,28.30
2018-06-11T12:40:27.748Z,28.30
2018-06-11T12:42:55.236Z,28.40
2018-06-11T12:45:23.199Z,28.40
2018-06-11T12:47:50.610Z,28.50
2018-06-11T12:50:18.029Z,28.50
2018-06-11T12:52:45.600Z,28.50
2018-06-11T12:55:13.047Z,28.60
2018-06-11T12:57:40.452Z,28.60
2018-06-11T13:00:07.865Z,28.60
2018-06-11T13:02:35.326Z,28.60
2018-06-11T13:05:02.841Z,28.70
2018-06-11T13:07:30.277Z,28.70
2018-06-11T13:09:57.675Z,28.70
2018-06-11T13:12:31.792Z,28.80
2018-06-11T13:14:59.217Z,28.90
2018-06-11T13:17:26.634Z,29.00
2018-06-11T13:19:54.043Z,29.10
2018-06-11T13:22:21.436Z,29.10
2018-06-11T13:24:48.831Z,29.20
2018-06-11T13:27:16.244Z,29.20
2018-06-11T13:29:43.644Z,29.10
2018-06-11T13:32:11.079Z,29.10
2018-06-11T13:34:38.511Z,29.10
2018-06-11T13:37:05.903Z,29.10
2018-06-11T13:39:33.483Z,29.20
2018-06-11T13:42:00.892Z,29.10
2018-06-11T13:44:28.300Z,29.10
2018-06-11T13:46:55.725Z,29.20
2018-06-11T13:49:23.138Z,29.20
2018-06-11T13:51:50.555Z,29.20
2018-06-11T13:54:17.988Z,29.20
2018-06-11T13:56:45.401Z,29.30
2018-06-11T13:59:12.815Z,29.30
2018-06-11T14:01:40.275Z,29.30
2018-06-11T14:04:07.748Z,29.40
2018-06-11T14:06:35.203Z,29.40
2018-06-11T14:09:02.761Z,29.50
2018-06-11T14:11:30.221Z,29.50
2018-06-11T14:13:57.638Z,29.50
2018-06-11T14:16:25.045Z,29.50
2018-06-11T14:18:52.459Z,29.60
2018-06-11T14:21:19.844Z,29.60
2018-06-11T14:23:50.281Z,29.70
2018-06-11T14:26:17.732Z,29.70
2018-06-11T14:28:45.144Z,29.80
2018-06-11T14:31:12.529Z,29.80
2018-06-11T14:33:40.196Z,29.80
2018-06-11T14:36:07.672Z,29.90
2018-06-11T14:38:35.108Z,29.90
2018-06-11T14:41:02.526Z,29.90
2018-06-11T14:43:29.986Z,29.90
2018-06-11T14:45:57.399Z,29.90
2018-06-11T14:48:24.796Z,29.90
2018-06-11T14:50:52.855Z,30.00
2018-06-11T14:53:20.364Z,30.00
2018-06-11T14:55:47.777Z,30.00
2018-06-11T14:58:15.913Z,30.00
2018-06-11T15:00:43.325Z,30.00
2018-06-11T15:03:10.705Z,29.90
2018-06-11T15:05:38.095Z,29.80
2018-06-11T15:08:05.504Z,29.70
2018-06-11T15:10:32.915Z,29.70
2018-06-11T15:13:00.308Z,29.60
2018-06-11T15:15:27.704Z,29.50
2018-06-11T15:17:55.090Z,29.60
2018-06-11T15:20:22.517Z,29.60
2018-06-11T15:22:49.977Z,29.70
2018-06-11T15:25:17.478Z,29.70
2018-06-11T15:27:44.868Z,29.70
2018-06-11T15:30:12.257Z,29.70
2018-06-11T15:32:39.647Z,29.60
2018-06-11T15:35:07.060Z,29.60
2018-06-11T15:37:34.452Z,29.60
2018-06-11T15:40:01.877Z,29.60
2018-06-11T15:42:29.457Z,29.60
2018-06-11T15:44:56.891Z,29.50
2018-06-11T15:47:24.311Z,29.50
2018-06-11T15:49:51.772Z,29.50
2018-06-11T15:52:19.176Z,29.60
2018-06-11T15:54:46.593Z,29.60
2018-06-11T15:57:14.008Z,29.60
2018-06-11T15:59:41.411Z,29.70
2018-06-11T16:02:08.843Z,29.70
2018-06-11T16:04:36.246Z,29.70
2018-06-11T16:09:31.271Z,29.70
2018-06-11T16:11:58.706Z,29.70
2018-06-11T16:14:26.192Z,29.70
2018-06-11T16:16:53.591Z,29.70
2018-06-11T16:19:20.971Z,29.70
2018-06-11T16:21:48.392Z,29.70
2018-06-11T16:24:15.791Z,29.70
2018-06-11T16:26:43.184Z,29.70
2018-06-11T16:29:10.641Z,29.60
2018-06-11T16:31:38.027Z,29.50
2018-06-11T16:34:05.487Z,29.40
2018-06-11T16:36:32.895Z,29.30
2018-06-11T16:39:00.346Z,29.10
2018-06-11T16:41:27.799Z,29.00
2018-06-11T16:43:55.225Z,28.90
2018-06-11T16:46:22.637Z,28.80
2018-06-11T16:48:50.058Z,28.80
2018-06-11T16:51:17.408Z,28.70
2018-06-11T16:53:44.804Z,28.60
2018-06-11T16:56:12.205Z,28.60
2018-06-11T16:58:39.748Z,28.50
2018-06-11T17:01:07.232Z,28.40
2018-06-11T17:03:34.640Z,28.40
2018-06-11T17:06:02.083Z,28.40
2018-06-11T17:08:29.636Z,28.30
2018-06-11T17:10:57.070Z,28.20
2018-06-11T17:13:24.447Z,28.20
2018-06-11T17:15:51.849Z,28.10
2018-06-11T17:18:19.231Z,28.10
2018-06-11T17:20:46.620Z,28.00
2018-06-11T17:23:14.007Z,27.90
2018-06-11T17:25:41.404Z,27.80
2018-06-11T17:30:36.225Z,27.70
2018-06-11T17:33:03.625Z,27.60
2018-06-11T17:35:31.026Z,27.60
2018-06-11T17:37:58.427Z,27.50
2018-06-11T17:40:25.837Z,27.50
2018-06-11T17:42:53.271Z,27.40
2018-06-11T17:45:20.678Z,27.30
2018-06-11T17:47:48.059Z,27.20
2018-06-11T17:50:15.484Z,27.20
2018-06-11T17:52:42.887Z,27.10
2018-06-11T17:55:10.261Z,27.00
2018-06-11T17:57:37.686Z,26.90
2018-06-11T18:00:05.288Z,26.80
2018-06-11T18:02:32.721Z,26.70
2018-06-11T18:05:00.109Z,26.70
2018-06-11T18:07:27.480Z,26.60
2018-06-11T18:09:54.858Z,26.50
2018-06-11T18:12:22.247Z,26.50
2018-06-11T18:14:49.866Z,26.40
2018-06-11T18:17:17.291Z,26.40
2018-06-11T18:19:44.714Z,26.40
2018-06-11T18:22:12.126Z,26.30
2018-06-11T18:24:39.533Z,26.30
2018-06-11T18:27:06.946Z,26.20
2018-06-11T18:29:34.343Z,26.20
2018-06-11T18:32:02.266Z,26.10
2018-06-11T18:34:29.638Z,26.10
2018-06-11T18:36:57.080Z,26.00
2018-06-11T18:39:24.515Z,25.90
2018-06-11T18:41:51.948Z,25.80
2018-06-11T18:44:19.339Z,25.80
2018-06-11T18:46:46.777Z,25.70
2018-06-11T18:49:14.189Z,25.50
2018-06-11T18:51:41.624Z,25.40
2018-06-11T18:54:09.005Z,25.30
2018-06-11T18:56:36.429Z,25.20
2018-06-11T18:59:03.879Z,25.10
2018-06-11T19:01:31.292Z,25.00
2018-06-11T19:06:26.172Z,24.70
2018-06-11T19:08:53.567Z,24.60
2018-06-11T19:11:20.992Z,24.60
2018-06-11T19:13:48.407Z,24.50
2018-06-11T19:16:15.857Z,24.50
2018-06-11T19:18:43.489Z,24.50
2018-06-11T19:21:10.860Z,24.40
2018-06-11T19:23:38.340Z,24.40
2018-06-11T19:26:05.794Z,24.40
2018-06-11T19:28:33.206Z,24.40
2018-06-11T19:33:28.188Z,24.30
2018-06-11T19:35:55.620Z,24.30
2018-06-11T19:38:23.095Z,24.30
2018-06-11T19:40:50.509Z,24.20
2018-06-11T19:43:17.921Z,24.20
2018-06-11T19:45:45.501Z,24.10
2018-06-11T19:48:13.009Z,24.10
2018-06-11T19:50:40.437Z,24.00
2018-06-11T19:55:35.740Z,24.00
2018-06-11T19:58:03.140Z,23.90
2018-06-11T20:00:30.586Z,23.80
2018-06-11T20:03:04.799Z,23.80
2018-06-11T20:05:32.223Z,23.80
2018-06-11T20:07:59.643Z,23.70
2018-06-11T20:10:27.179Z,23.70
2018-06-11T20:12:54.608Z,23.60
2018-06-11T20:15:22.015Z,23.60
2018-06-11T20:17:49.434Z,23.50
2018-06-11T20:22:44.257Z,23.40
2018-06-11T20:25:11.743Z,23.40
2018-06-11T20:27:39.272Z,23.30
2018-06-11T20:30:06.683Z,23.30
2018-06-11T20:32:34.129Z,23.20
2018-06-11T20:35:01.526Z,23.10
2018-06-11T20:37:28.916Z,23.10
2018-06-11T20:39:56.433Z,23.00
2018-06-11T20:42:23.827Z,23.00
2018-06-11T20:44:51.219Z,22.90
2018-06-11T20:47:18.675Z,22.90
2018-06-11T20:49:46.070Z,22.80
2018-06-11T20:52:13.464Z,22.70
2018-06-11T20:54:40.862Z,22.70
2018-06-11T20:57:08.327Z,22.70
2018-06-11T20:59:35.717Z,22.70
2018-06-11T21:02:03.169Z,22.60
2018-06-11T21:04:30.572Z,22.60
2018-06-11T21:06:57.952Z,22.50
2018-06-11T21:09:25.335Z,22.50
2018-06-11T21:11:52.731Z,22.50
2018-06-11T21:14:20.111Z,22.50
2018-06-11T21:16:47.549Z,22.40
2018-06-11T21:19:14.945Z,22.30
2018-06-11T21:21:42.389Z,22.30
2018-06-11T21:26:37.213Z,22.20
2018-06-11T21:29:04.631Z,22.20
2018-06-11T21:31:31.998Z,22.10
2018-06-11T21:33:59.394Z,22.10
2018-06-11T21:36:26.837Z,22.10
2018-06-11T21:38:54.232Z,22.00
2018-06-11T21:41:21.636Z,22.00
2018-06-11T21:43:49.045Z,22.00
2018-06-11T21:46:16.437Z,21.90
2018-06-11T21:48:43.888Z,21.90
2018-06-11T21:51:11.396Z,21.80
2018-06-11T21:53:38.826Z,21.70
2018-06-11T21:56:06.252Z,21.70
2018-06-11T21:58:33.627Z,21.60
2018-06-11T22:01:01.039Z,21.60
2018-06-11T22:03:28.557Z,21.50
2018-06-11T22:05:55.854Z,21.40
2018-06-11T22:08:23.313Z,21.40
2018-06-11T22:10:50.734Z,21.30
2018-06-11T22:13:18.156Z,21.30
2018-06-11T22:15:45.569Z,21.20
2018-06-11T22:18:12.963Z,21.20
2018-06-11T22:20:40.355Z,21.10
2018-06-11T22:23:07.758Z,21.00
2018-06-11T22:25:35.155Z,21.00
2018-06-11T22:28:02.587Z,20.90
2018-06-11T22:30:30.001Z,20.80
2018-06-11T22:32:57.403Z,20.80
2018-06-11T22:35:24.797Z,20.70
2018-06-11T22:37:52.182Z,20.60
2018-06-11T22:40:19.567Z,20.60
2018-06-11T22:42:46.930Z,20.50
2018-06-11T22:45:14.302Z,20.40
2018-06-11T22:47:41.675Z,20.40
2018-06-11T22:50:09.051Z,20.30
2018-06-11T22:52:36.467Z,20.20
2018-06-11T22:55:03.875Z,20.10
2018-06-11T22:57:31.790Z,20.00
2018-06-11T22:59:59.173Z,19.90
2018-06-11T23:02:26.574Z,19.90
2018-06-11T23:04:53.975Z,19.80
2018-06-11T23:07:21.363Z,19.80
2018-06-11T23:09:48.720Z,19.70
2018-06-11T23:12:16.105Z,19.70
2018-06-11T23:17:10.912Z,19.50
2018-06-11T23:19:38.290Z,19.50
2018-06-11T23:22:05.720Z,19.40
2018-06-11T23:24:33.116Z,19.40
2018-06-11T23:27:00.592Z,19.30
2018-06-11T23:29:34.829Z,19.30
2018-06-11T23:32:02.202Z,19.20
2018-06-11T23:34:29.580Z,19.20
2018-06-11T23:36:56.989Z,19.10
2018-06-11T23:39:24.355Z,19.10
2018-06-11T23:41:51.720Z,19.10
2018-06-11T23:44:19.099Z,19.00
2018-06-11T23:46:46.467Z,19.00
2018-06-11T23:49:13.850Z,18.90
2018-06-11T23:51:41.233Z,18.90
2018-06-11T23:54:08.629Z,18.90
2018-06-11T23:56:36.014Z,18.80
2018-06-11T23:59:03.411Z,18.80
